createdAt,value
2018-08-19T00:00:28.414Z,99057.00
2018-08-19T00:03:02.024Z,99069.00
2018-08-19T00:05:30.617Z,99066.00
2018-08-19T00:07:59.084Z,99065.00
2018-08-19T00:11:10.469Z,99075.00
2018-08-19T00:13:39.376Z,99067.00
2018-08-19T00:16:09.057Z,99077.00
2018-08-19T00:18:37.879Z,99069.00
2018-08-19T00:21:11.886Z,99070.00
2018-08-19T00:23:45.817Z,99064.00
2018-08-19T00:26:14.645Z,99069.00
2018-08-19T00:28:43.112Z,99068.00
2018-08-19T00:31:11.516Z,99066.00
2018-08-19T00:33:40.688Z,99074.00
2018-08-19T00:36:25.816Z,99074.00
2018-08-19T00:38:54.914Z,99068.00
2018-08-19T00:41:23.346Z,99063.00
2018-08-19T00:43:51.769Z,99065.00
2018-08-19T00:46:33.169Z,99065.00
2018-08-19T00:49:01.956Z,99060.00
2018-08-19T00:51:30.598Z,99058.00
2018-08-19T00:53:59.120Z,99056.00
2018-08-19T00:56:27.555Z,99058.00
2018-08-19T00:58:55.989Z,99057.00
2018-08-19T01:01:34.725Z,99053.00
2018-08-19T01:04:03.515Z,99057.00
2018-08-19T01:06:38.453Z,99051.00
2018-08-19T01:09:07.491Z,99051.00
2018-08-19T01:11:36.533Z,99048.00
2018-08-19T01:14:09.134Z,99053.00
2018-08-19T01:16:37.575Z,99054.00
2018-08-19T01:19:06.080Z,99065.00
2018-08-19T01:21:34.525Z,99061.00
2018-08-19T01:24:06.061Z,99060.00
2018-08-19T01:26:36.101Z,99070.00
2018-08-19T01:29:05.399Z,99066.00
2018-08-19T01:31:33.846Z,99079.00
2018-08-19T01:34:06.038Z,99068.00
2018-08-19T01:36:34.501Z,99084.00
2018-08-19T01:39:03.037Z,99075.00
2018-08-19T01:41:31.488Z,99077.00
2018-08-19T01:44:05.211Z,99080.00
2018-08-19T01:46:50.257Z,99076.00
2018-08-19T01:49:18.756Z,99078.00
2018-08-19T01:51:47.356Z,99081.00
2018-08-19T01:54:20.661Z,99088.00
2018-08-19T01:56:58.878Z,99084.00
2018-08-19T01:59:28.174Z,99079.00
2018-08-19T02:02:00.138Z,99081.00
2018-08-19T02:04:30.073Z,99093.00
2018-08-19T02:06:58.632Z,99081.00
2018-08-19T02:09:27.052Z,99084.00
2018-08-19T02:11:56.725Z,99081.00
2018-08-19T02:14:25.520Z,99085.00
2018-08-19T02:16:54.821Z,99079.00
2018-08-19T02:19:23.237Z,99083.00
2018-08-19T02:21:52.325Z,99083.00
2018-08-19T02:24:20.893Z,99084.00
2018-08-19T02:26:49.348Z,99084.00
2018-08-19T02:29:36.722Z,99081.00
2018-08-19T02:32:07.520Z,99086.00
2018-08-19T02:34:41.236Z,99089.00
2018-08-19T02:37:11.960Z,99090.00
2018-08-19T02:39:42.095Z,99087.00
2018-08-19T02:42:17.501Z,99076.00
2018-08-19T02:44:45.936Z,99081.00
2018-08-19T02:47:14.364Z,99082.00
2018-08-19T02:49:42.923Z,99076.00
2018-08-19T02:52:14.765Z,99080.00
2018-08-19T02:54:43.202Z,99074.00
2018-08-19T02:57:11.616Z,99074.00
2018-08-19T02:59:40.121Z,99076.00
2018-08-19T03:02:22.871Z,99069.00
2018-08-19T03:04:52.118Z,99073.00
2018-08-19T03:07:21.096Z,99066.00
2018-08-19T03:09:53.745Z,99071.00
2018-08-19T03:12:22.206Z,99067.00
2018-08-19T03:14:50.625Z,99059.00
2018-08-19T03:17:19.143Z,99064.00
2018-08-19T03:19:47.612Z,99063.00
2018-08-19T03:22:16.046Z,99058.00
2018-08-19T03:24:44.493Z,99065.00
2018-08-19T03:27:12.934Z,99065.00
2018-08-19T03:29:46.840Z,99066.00
2018-08-19T03:32:15.244Z,99062.00
2018-08-19T03:34:43.765Z,99062.00
2018-08-19T03:37:14.269Z,99058.00
2018-08-19T03:39:43.101Z,99060.00
2018-08-19T03:42:12.648Z,99057.00
2018-08-19T03:44:41.115Z,99054.00
2018-08-19T03:47:14.798Z,99051.00
2018-08-19T03:49:43.318Z,99059.00
2018-08-19T03:52:13.444Z,99066.00
2018-08-19T03:54:42.124Z,99067.00
2018-08-19T03:57:10.565Z,99069.00
2018-08-19T03:59:39.614Z,99067.00
2018-08-19T04:02:08.069Z,99077.00
2018-08-19T04:04:36.501Z,99061.00
2018-08-19T04:07:04.940Z,99059.00
2018-08-19T04:09:33.510Z,99060.00
2018-08-19T04:12:13.274Z,99064.00
2018-08-19T04:14:41.818Z,99060.00
2018-08-19T04:17:12.315Z,99068.00
2018-08-19T04:19:41.085Z,99063.00
2018-08-19T04:22:09.525Z,99065.00
2018-08-19T04:24:37.973Z,99070.00
2018-08-19T04:27:07.883Z,99066.00
2018-08-19T04:29:36.952Z,99061.00
2018-08-19T04:32:06.068Z,99069.00
2018-08-19T04:34:34.637Z,99061.00
2018-08-19T04:37:03.145Z,99068.00
2018-08-19T04:39:31.617Z,99065.00
2018-08-19T04:42:00.065Z,99064.00
2018-08-19T04:44:29.329Z,99072.00
2018-08-19T04:46:57.878Z,99070.00
2018-08-19T04:49:26.457Z,99075.00
2018-08-19T04:51:55.025Z,99077.00
2018-08-19T04:54:23.502Z,99084.00
2018-08-19T04:56:51.972Z,99071.00
2018-08-19T04:59:21.008Z,99065.00
2018-08-19T05:01:49.540Z,99073.00
2018-08-19T05:04:18.370Z,99077.00
2018-08-19T05:06:46.794Z,99072.00
2018-08-19T05:09:15.378Z,99077.00
2018-08-19T05:11:43.831Z,99073.00
2018-08-19T05:14:12.255Z,99070.00
2018-08-19T05:16:40.680Z,99077.00
2018-08-19T05:19:09.125Z,99078.00
2018-08-19T05:21:37.605Z,99077.00
2018-08-19T05:24:06.077Z,99080.00
2018-08-19T05:26:34.555Z,99076.00
2018-08-19T05:29:08.443Z,99079.00
2018-08-19T05:31:43.663Z,99081.00
2018-08-19T05:34:16.399Z,99080.00
2018-08-19T05:36:48.072Z,99079.00
2018-08-19T05:39:16.787Z,99079.00
2018-08-19T05:42:00.008Z,99080.00
2018-08-19T05:44:31.581Z,99097.00
2018-08-19T05:47:11.832Z,99081.00
2018-08-19T05:49:41.445Z,99089.00
2018-08-19T05:52:16.797Z,99091.00
2018-08-19T05:55:04.005Z,99089.00
2018-08-19T05:57:34.536Z,99131.00
2018-08-19T06:00:08.388Z,99078.00
2018-08-19T06:02:44.234Z,99093.00
2018-08-19T06:05:13.325Z,99095.00
2018-08-19T06:07:41.796Z,99092.00
2018-08-19T06:10:10.221Z,99098.00
2018-08-19T06:12:39.118Z,99097.00
2018-08-19T06:15:07.749Z,99089.00
2018-08-19T06:17:36.434Z,99101.00
2018-08-19T06:20:05.158Z,99095.00
2018-08-19T06:22:38.985Z,99092.00
2018-08-19T06:25:07.629Z,99100.00
2018-08-19T06:27:50.730Z,99092.00
2018-08-19T06:30:19.992Z,99096.00
2018-08-19T06:32:50.010Z,99102.00
2018-08-19T06:35:18.519Z,99093.00
2018-08-19T06:37:47.418Z,99091.00
2018-08-19T06:40:18.615Z,99100.00
2018-08-19T06:42:47.097Z,99105.00
2018-08-19T06:45:16.164Z,99098.00
2018-08-19T06:47:44.622Z,99095.00
2018-08-19T06:50:39.094Z,99103.00
2018-08-19T06:53:07.568Z,99092.00
2018-08-19T06:55:36.040Z,99101.00
2018-08-19T06:58:04.525Z,99096.00
2018-08-19T07:00:33.171Z,99096.00
2018-08-19T07:03:04.929Z,99101.00
2018-08-19T07:05:34.028Z,99087.00
2018-08-19T07:08:02.933Z,99095.00
2018-08-19T07:10:38.766Z,99099.00
2018-08-19T07:13:10.013Z,99095.00
2018-08-19T07:15:40.145Z,99102.00
2018-08-19T07:18:10.079Z,99094.00
2018-08-19T07:20:39.553Z,99105.00
2018-08-19T07:23:08.445Z,99104.00
2018-08-19T07:25:38.486Z,99101.00
2018-08-19T07:28:08.293Z,99106.00
2018-08-19T07:32:47.811Z,99103.00
2018-08-19T07:35:16.466Z,99098.00
2018-08-19T07:37:44.990Z,99098.00
2018-08-19T07:40:13.697Z,99101.00
2018-08-19T07:42:42.315Z,99122.00
2018-08-19T07:45:10.917Z,99091.00
2018-08-19T07:47:40.542Z,99092.00
2018-08-19T07:50:09.773Z,99103.00
2018-08-19T07:52:38.241Z,99103.00
2018-08-19T07:55:07.280Z,99092.00
2018-08-19T07:57:35.737Z,99097.00
2018-08-19T08:00:04.668Z,99105.00
2018-08-19T08:02:33.175Z,99098.00
2018-08-19T08:05:01.669Z,99098.00
2018-08-19T08:07:32.505Z,99098.00
2018-08-19T08:10:01.665Z,99098.00
2018-08-19T08:12:30.923Z,99096.00
2018-08-19T08:15:00.691Z,99098.00
2018-08-19T08:17:30.323Z,99101.00
2018-08-19T08:20:04.900Z,99097.00
2018-08-19T08:22:36.091Z,99096.00
2018-08-19T08:25:09.298Z,99107.00
2018-08-19T08:27:39.568Z,99095.00
2018-08-19T08:30:10.548Z,99102.00
2018-08-19T08:32:40.191Z,99096.00
2018-08-19T08:35:10.139Z,99106.00
2018-08-19T08:37:42.101Z,99100.00
2018-08-19T08:40:11.508Z,99102.00
2018-08-19T08:42:44.589Z,99112.00
2018-08-19T08:45:14.662Z,99101.00
2018-08-19T08:47:44.027Z,99094.00
2018-08-19T08:50:13.925Z,99105.00
2018-08-19T08:52:44.785Z,99093.00
2018-08-19T08:55:14.738Z,99088.00
2018-08-19T08:57:46.557Z,99096.00
2018-08-19T09:00:17.261Z,99086.00
2018-08-19T09:02:47.072Z,99090.00
2018-08-19T09:05:15.778Z,99089.00
2018-08-19T09:07:44.569Z,99083.00
2018-08-19T09:10:14.065Z,99088.00
2018-08-19T09:12:45.781Z,99076.00
2018-08-19T09:15:15.063Z,99071.00
2018-08-19T09:17:45.130Z,99084.00
2018-08-19T09:20:14.359Z,99068.00
2018-08-19T09:22:44.349Z,99082.00
2018-08-19T09:25:13.564Z,99070.00
2018-08-19T09:27:43.308Z,99070.00
2018-08-19T09:30:18.766Z,99061.00
2018-08-19T09:32:58.356Z,99062.00
2018-08-19T09:35:31.879Z,99064.00
2018-08-19T09:38:11.970Z,99055.00
2018-08-19T09:40:41.266Z,99060.00
2018-08-19T09:43:10.976Z,99041.00
2018-08-19T09:45:40.452Z,99047.00
2018-08-19T09:48:10.225Z,99050.00
2018-08-19T09:50:40.402Z,99052.00
2018-08-19T09:53:09.897Z,99057.00
2018-08-19T09:55:40.541Z,99051.00
2018-08-19T09:58:17.012Z,99054.00
2018-08-19T10:00:51.338Z,99049.00
2018-08-19T10:03:20.483Z,99047.00
2018-08-19T10:05:49.797Z,99049.00
2018-08-19T10:08:21.365Z,99040.00
2018-08-19T10:10:50.892Z,99048.00
2018-08-19T10:13:20.341Z,99042.00
2018-08-19T10:15:49.632Z,99041.00
2018-08-19T10:18:19.080Z,99034.00
2018-08-19T10:20:48.242Z,99029.00
2018-08-19T10:23:17.553Z,99030.00
2018-08-19T10:25:47.500Z,99028.00
2018-08-19T10:28:16.733Z,99020.00
2018-08-19T10:30:51.437Z,99026.00
2018-08-19T10:33:22.044Z,99019.00
2018-08-19T10:35:51.621Z,99020.00
2018-08-19T10:38:21.187Z,99013.00
2018-08-19T10:41:08.823Z,99019.00
2018-08-19T10:43:38.119Z,99003.00
2018-08-19T10:46:07.547Z,99010.00
2018-08-19T10:48:36.787Z,98996.00
2018-08-19T10:51:06.068Z,99002.00
2018-08-19T10:53:35.395Z,98999.00
2018-08-19T10:56:04.419Z,98993.00
2018-08-19T10:58:33.778Z,98986.00
2018-08-19T11:01:03.176Z,99010.00
2018-08-19T11:03:32.630Z,98989.00
2018-08-19T11:06:01.700Z,98994.00
2018-08-19T11:08:30.974Z,98989.00
2018-08-19T11:11:00.325Z,98984.00
2018-08-19T11:13:29.748Z,98989.00
2018-08-19T11:15:59.348Z,98985.00
2018-08-19T11:18:33.566Z,98995.00
2018-08-19T11:21:08.191Z,98975.00
2018-08-19T11:23:39.706Z,98973.00
2018-08-19T11:26:09.481Z,98977.00
2018-08-19T11:28:41.507Z,98980.00
2018-08-19T11:31:18.280Z,98977.00
2018-08-19T11:33:47.591Z,98964.00
2018-08-19T11:36:16.682Z,98968.00
2018-08-19T11:38:49.409Z,98975.00
2018-08-19T11:41:18.950Z,98969.00
2018-08-19T11:43:48.531Z,98962.00
2018-08-19T11:46:16.946Z,98968.00
2018-08-19T11:48:45.519Z,98961.00
2018-08-19T11:51:14.387Z,98960.00
2018-08-19T11:53:43.533Z,98959.00
2018-08-19T11:56:13.568Z,98960.00
2018-08-19T11:58:44.955Z,98959.00
2018-08-19T12:01:15.801Z,98958.00
2018-08-19T12:03:59.006Z,98947.00
2018-08-19T12:06:32.042Z,98952.00
2018-08-19T12:09:05.927Z,98949.00
2018-08-19T12:11:36.268Z,98945.00
2018-08-19T12:14:07.859Z,98936.00
2018-08-19T12:16:50.941Z,98935.00
2018-08-19T12:19:23.065Z,98937.00
2018-08-19T12:21:56.634Z,98925.00
2018-08-19T12:24:46.093Z,98935.00
2018-08-19T12:27:17.351Z,98931.00
2018-08-19T12:29:47.191Z,98923.00
2018-08-19T12:32:21.393Z,98912.00
2018-08-19T12:34:51.903Z,98917.00
2018-08-19T12:37:22.552Z,98906.00
2018-08-19T12:39:53.042Z,98905.00
2018-08-19T12:42:22.473Z,98924.00
2018-08-19T12:44:57.929Z,98907.00
2018-08-19T12:47:27.942Z,98898.00
2018-08-19T12:50:01.193Z,98908.00
2018-08-19T12:52:31.638Z,98901.00
2018-08-19T12:55:12.488Z,98900.00
2018-08-19T12:57:42.509Z,98898.00
2018-08-19T13:00:20.470Z,98894.00
2018-08-19T13:02:51.070Z,98891.00
2018-08-19T13:05:20.591Z,98912.00
2018-08-19T13:07:49.848Z,98891.00
2018-08-19T13:10:19.180Z,98887.00
2018-08-19T13:12:53.661Z,98880.00
2018-08-19T13:15:23.831Z,98890.00
2018-08-19T13:17:53.183Z,98883.00
2018-08-19T13:20:22.278Z,98877.00
2018-08-19T13:22:57.046Z,98881.00
2018-08-19T13:25:26.085Z,98879.00
2018-08-19T13:27:55.301Z,98869.00
2018-08-19T13:30:24.582Z,98873.00
2018-08-19T13:32:53.906Z,98870.00
2018-08-19T13:35:23.128Z,98869.00
2018-08-19T13:37:52.600Z,98880.00
2018-08-19T13:40:21.863Z,98864.00
2018-08-19T13:42:51.132Z,98862.00
2018-08-19T13:45:21.290Z,98857.00
2018-08-19T13:47:52.716Z,98857.00
2018-08-19T13:50:22.205Z,98851.00
2018-08-19T13:52:51.287Z,98852.00
2018-08-19T13:55:21.258Z,98845.00
2018-08-19T13:57:51.165Z,98845.00
2018-08-19T14:00:21.859Z,98836.00
2018-08-19T14:02:51.256Z,98842.00
2018-08-19T14:05:20.622Z,98834.00
2018-08-19T14:07:49.866Z,98837.00
2018-08-19T14:12:56.424Z,98838.00
2018-08-19T14:15:24.893Z,98827.00
2018-08-19T14:17:56.828Z,98835.00
2018-08-19T14:20:28.697Z,98824.00
2018-08-19T14:23:04.872Z,98830.00
2018-08-19T14:25:41.923Z,98826.00
2018-08-19T14:28:11.171Z,98821.00
2018-08-19T14:30:40.533Z,98829.00
2018-08-19T14:33:11.512Z,98821.00
2018-08-19T14:35:40.756Z,98824.00
2018-08-19T14:38:15.860Z,98812.00
2018-08-19T14:40:46.231Z,98815.00
2018-08-19T14:43:15.980Z,98807.00
2018-08-19T14:45:46.621Z,98807.00
2018-08-19T14:48:18.059Z,98803.00
2018-08-19T14:50:49.549Z,98807.00
2018-08-19T14:53:24.075Z,98800.00
2018-08-19T14:56:12.732Z,98802.00
2018-08-19T14:58:48.399Z,98801.00
2018-08-19T15:01:21.185Z,98798.00
2018-08-19T15:03:59.331Z,98788.00
2018-08-19T15:06:35.761Z,98787.00
2018-08-19T15:09:08.045Z,98801.00
2018-08-19T15:11:40.650Z,98778.00
2018-08-19T15:14:23.580Z,98775.00
2018-08-19T15:16:55.999Z,98779.00
2018-08-19T15:19:31.331Z,98776.00
2018-08-19T15:22:04.937Z,98785.00
2018-08-19T15:27:23.965Z,98776.00
2018-08-19T15:30:01.859Z,98776.00
2018-08-19T15:32:36.108Z,98771.00
2018-08-19T15:35:13.126Z,98769.00
2018-08-19T15:37:45.215Z,98768.00
2018-08-19T15:40:48.446Z,98772.00
2018-08-19T15:43:18.586Z,98771.00
2018-08-19T15:45:50.783Z,98765.00
2018-08-19T15:48:24.480Z,98764.00
2018-08-19T15:51:04.582Z,98763.00
2018-08-19T15:53:42.509Z,98757.00
2018-08-19T15:56:16.802Z,98761.00
2018-08-19T15:58:50.976Z,98753.00
2018-08-19T16:01:30.127Z,98750.00
2018-08-19T16:04:04.854Z,98750.00
2018-08-19T16:06:35.159Z,98766.00
2018-08-19T16:09:06.332Z,98743.00
2018-08-19T16:11:35.227Z,98748.00
2018-08-19T16:16:50.833Z,98744.00
2018-08-19T16:19:26.772Z,98748.00
2018-08-19T16:21:59.927Z,98738.00
2018-08-19T16:24:47.402Z,98735.00
2018-08-19T16:27:20.219Z,98730.00
2018-08-19T16:29:53.260Z,98728.00
2018-08-19T16:32:26.663Z,98734.00
2018-08-19T16:35:02.206Z,98733.00
2018-08-19T16:37:34.816Z,98732.00
2018-08-19T16:40:06.679Z,98730.00
2018-08-19T16:42:40.904Z,98728.00
2018-08-19T16:45:13.199Z,98728.00
2018-08-19T16:47:44.748Z,98730.00
2018-08-19T16:50:17.818Z,98728.00
2018-08-19T16:52:46.585Z,98723.00
2018-08-19T16:55:15.544Z,98726.00
2018-08-19T16:57:44.742Z,98724.00
2018-08-19T17:00:13.588Z,98716.00
2018-08-19T17:02:42.292Z,98719.00
2018-08-19T17:05:42.241Z,98717.00
2018-08-19T17:08:11.245Z,98717.00
2018-08-19T17:10:39.847Z,98724.00
2018-08-19T17:13:08.935Z,98725.00
2018-08-19T17:15:37.693Z,98722.00
2018-08-19T17:18:06.355Z,98720.00
2018-08-19T17:20:35.429Z,98742.00
2018-08-19T17:23:04.093Z,98724.00
2018-08-19T17:25:32.870Z,98716.00
2018-08-19T17:28:07.125Z,98727.00
2018-08-19T17:30:36.020Z,98727.00
2018-08-19T17:33:08.432Z,98727.00
2018-08-19T17:35:38.004Z,98721.00
2018-08-19T17:38:07.079Z,98731.00
2018-08-19T17:40:35.843Z,98730.00
2018-08-19T17:43:04.567Z,98731.00
2018-08-19T17:45:33.369Z,98728.00
2018-08-19T17:48:02.076Z,98733.00
2018-08-19T17:50:30.708Z,98724.00
2018-08-19T17:53:01.506Z,98733.00
2018-08-19T17:55:31.355Z,98724.00
2018-08-19T17:58:00.883Z,98724.00
2018-08-19T18:00:32.046Z,98732.00
2018-08-19T18:03:04.746Z,98727.00
2018-08-19T18:05:37.204Z,98731.00
2018-08-19T18:08:11.780Z,98734.00
2018-08-19T18:10:53.967Z,98734.00
2018-08-19T18:13:25.223Z,98738.00
2018-08-19T18:16:03.544Z,98750.00
2018-08-19T18:18:39.167Z,98754.00
2018-08-19T18:21:18.019Z,98749.00
2018-08-19T18:23:54.972Z,98740.00
2018-08-19T18:26:27.703Z,98740.00
2018-08-19T18:29:02.130Z,98736.00
2018-08-19T18:31:33.438Z,98734.00
2018-08-19T18:34:07.465Z,98743.00
2018-08-19T18:36:44.680Z,98742.00
2018-08-19T18:39:18.355Z,98737.00
2018-08-19T18:41:51.434Z,98740.00
2018-08-19T18:44:26.976Z,98742.00
2018-08-19T18:47:00.394Z,98745.00
2018-08-19T18:53:31.786Z,98740.00
2018-08-19T18:56:09.785Z,98742.00
2018-08-19T18:58:44.713Z,98741.00
2018-08-19T19:01:17.119Z,98751.00
2018-08-19T19:03:53.807Z,98752.00
2018-08-19T19:06:28.773Z,98749.00
2018-08-19T19:08:58.765Z,98753.00
2018-08-19T19:11:33.309Z,98758.00
2018-08-19T19:14:27.722Z,98756.00
2018-08-19T19:16:57.526Z,98757.00
2018-08-19T19:19:36.365Z,98763.00
2018-08-19T19:22:10.801Z,98753.00
2018-08-19T19:24:51.454Z,98764.00
2018-08-19T19:27:25.005Z,98767.00
2018-08-19T19:30:00.355Z,98764.00
2018-08-19T19:32:37.220Z,98762.00
2018-08-19T19:35:20.887Z,98766.00
2018-08-19T19:37:58.916Z,98756.00
2018-08-19T19:40:30.738Z,98759.00
2018-08-19T19:43:03.558Z,98763.00
2018-08-19T19:45:42.512Z,98765.00
2018-08-19T19:48:13.668Z,98769.00
2018-08-19T19:50:48.052Z,98772.00
2018-08-19T19:53:22.016Z,98773.00
2018-08-19T19:56:01.293Z,98772.00
2018-08-19T19:58:37.128Z,98774.00
2018-08-19T20:01:12.715Z,98772.00
2018-08-19T20:03:56.352Z,98780.00
2018-08-19T20:06:31.308Z,98788.00
2018-08-19T20:09:12.384Z,98783.00
2018-08-19T20:11:48.935Z,98792.00
2018-08-19T20:14:25.708Z,98781.00
2018-08-19T20:16:57.987Z,98788.00
2018-08-19T20:19:29.098Z,98785.00
2018-08-19T20:22:01.937Z,98787.00
2018-08-19T20:24:39.946Z,98792.00
2018-08-19T20:27:18.925Z,98786.00
2018-08-19T20:29:57.768Z,98798.00
2018-08-19T20:32:31.988Z,98806.00
2018-08-19T20:35:04.544Z,98805.00
2018-08-19T20:37:39.480Z,98796.00
2018-08-19T20:40:12.590Z,98799.00
2018-08-19T20:42:46.532Z,98793.00
2018-08-19T20:45:20.627Z,98802.00
2018-08-19T20:47:52.783Z,98795.00
2018-08-19T20:50:26.795Z,98797.00
2018-08-19T20:52:59.072Z,98801.00
2018-08-19T20:55:31.606Z,98804.00
2018-08-19T20:58:05.405Z,98808.00
2018-08-19T21:00:38.112Z,98808.00
2018-08-19T21:03:13.850Z,98815.00
2018-08-19T21:05:46.412Z,98813.00
2018-08-19T21:08:19.245Z,98820.00
2018-08-19T21:10:51.266Z,98818.00
2018-08-19T21:13:28.654Z,98811.00
2018-08-19T21:15:59.627Z,98809.00
2018-08-19T21:18:33.373Z,98812.00
2018-08-19T21:21:14.221Z,98823.00
2018-08-19T21:23:47.830Z,98824.00
2018-08-19T21:26:27.973Z,98826.00
2018-08-19T21:29:05.065Z,98826.00
2018-08-19T21:31:36.894Z,98822.00
2018-08-19T21:34:09.764Z,98825.00
2018-08-19T21:36:52.016Z,98826.00
2018-08-19T21:39:23.141Z,98830.00
2018-08-19T21:41:54.047Z,98837.00
2018-08-19T21:44:23.457Z,98833.00
2018-08-19T21:46:51.931Z,98827.00
2018-08-19T21:49:20.370Z,98826.00
2018-08-19T21:51:48.828Z,98826.00
2018-08-19T21:54:17.604Z,98828.00
2018-08-19T21:56:46.052Z,98829.00
2018-08-19T21:59:19.696Z,98834.00
2018-08-19T22:01:51.038Z,98823.00
2018-08-19T22:04:20.848Z,98823.00
2018-08-19T22:06:49.648Z,98826.00
2018-08-19T22:09:29.369Z,98823.00
2018-08-19T22:11:58.925Z,98827.00
2018-08-19T22:14:27.585Z,98822.00
2018-08-19T22:17:01.206Z,98825.00
2018-08-19T22:19:29.641Z,98824.00
2018-08-19T22:21:58.072Z,98827.00
2018-08-19T22:24:26.518Z,98824.00
2018-08-19T22:27:03.449Z,98827.00
2018-08-19T22:29:31.971Z,98830.00
2018-08-19T22:32:00.396Z,98828.00
2018-08-19T22:34:29.827Z,98829.00
2018-08-19T22:36:58.260Z,98827.00
2018-08-19T22:39:26.717Z,98829.00
2018-08-19T22:41:55.144Z,98829.00
2018-08-19T22:44:23.569Z,98830.00
2018-08-19T22:46:51.994Z,98825.00
2018-08-19T22:49:20.412Z,98826.00
2018-08-19T22:51:48.831Z,98826.00
2018-08-19T22:54:17.249Z,98832.00
2018-08-19T22:56:45.684Z,98830.00
2018-08-19T22:59:14.092Z,98827.00
2018-08-19T23:01:47.524Z,98828.00
2018-08-19T23:04:16.002Z,98823.00
2018-08-19T23:06:44.456Z,98826.00
2018-08-19T23:09:12.910Z,98826.00
2018-08-19T23:11:46.473Z,98819.00
2018-08-19T23:14:26.261Z,98821.00
2018-08-19T23:16:54.694Z,98822.00
2018-08-19T23:19:23.120Z,98827.00
2018-08-19T23:21:51.725Z,98825.00
2018-08-19T23:24:20.161Z,98832.00
2018-08-19T23:26:48.703Z,98820.00
2018-08-19T23:29:17.519Z,98826.00
2018-08-19T23:31:45.943Z,98820.00
2018-08-19T23:34:14.365Z,98821.00
2018-08-19T23:36:42.809Z,98828.00
2018-08-19T23:39:11.271Z,98819.00
2018-08-19T23:41:39.692Z,98821.00
2018-08-19T23:44:08.395Z,98823.00
2018-08-19T23:46:37.075Z,98819.00
2018-08-19T23:49:05.620Z,98822.00
2018-08-19T23:51:34.041Z,98821.00
2018-08-19T23:54:03.349Z,98811.00
2018-08-19T23:56:32.126Z,98811.00
2018-08-19T23:59:00.909Z,98807.00
